Time;durP1;ratioP1;P1;durP2;ratioP2;P2;SDS_P1;SDS_P2;PMS_P1;PMS_P2;Temp;Humidity;BMP_temperature;BMP_pressure;BME280_temperature;BME280_humidity;BME280_pressure;Samples;Min_cycle;Max_cycle;Signal;HPM_P1;HPM_P2
2022/03/28 00:01:52;;;;;;;31.35;20.27;;;7.10;99.90;;;;;;5032988;28;20280;-57
2022/03/28 00:04:19;;;;;;;33.33;20.00;;;7.10;99.90;;;;;;5033544;28;20213;-56
2022/03/28 00:06:47;;;;;;;33.20;20.23;;;7.10;99.90;;;;;;5033391;28;20674;-57
2022/03/28 00:09:14;;;;;;;32.63;19.75;;;7.20;99.90;;;;;;5033785;28;20202;-57
2022/03/28 00:11:43;;;;;;;34.13;20.75;;;7.20;99.90;;;;;;5033528;28;20240;-57
2022/03/28 00:14:10;;;;;;;33.15;20.00;;;7.30;99.90;;;;;;5033489;28;20223;-57
2022/03/28 00:16:37;;;;;;;31.63;20.52;;;7.30;99.90;;;;;;5037865;28;20202;-56
2022/03/28 00:19:04;;;;;;;32.28;18.65;;;7.40;99.90;;;;;;5042680;28;20672;-57
2022/03/28 00:21:31;;;;;;;40.58;19.90;;;7.40;99.90;;;;;;5034413;28;20228;-58
2022/03/28 00:23:58;;;;;;;34.22;20.23;;;7.40;99.90;;;;;;5033521;28;20199;-57
2022/03/28 00:26:25;;;;;;;35.45;19.48;;;7.30;99.90;;;;;;5037867;28;20559;-57
2022/03/28 00:28:54;;;;;;;33.88;20.80;;;7.30;99.90;;;;;;5037299;28;20197;-57
2022/03/28 00:31:21;;;;;;;35.80;20.52;;;7.30;99.90;;;;;;5037538;28;20274;-57
2022/03/28 00:33:48;;;;;;;31.80;21.55;;;7.20;99.90;;;;;;5037778;28;20582;-57
2022/03/28 00:36:15;;;;;;;31.25;21.42;;;7.20;99.90;;;;;;5037621;28;20677;-57
2022/03/28 00:38:43;;;;;;;31.45;19.80;;;7.20;99.90;;;;;;5037398;28;20209;-58
2022/03/28 00:41:10;;;;;;;41.33;19.17;;;7.10;99.90;;;;;;5037779;28;20219;-57
2022/03/28 00:43:44;;;;;;;44.10;21.90;;;7.00;99.90;;;;;;5037036;28;20577;-57
2022/03/28 00:46:13;;;;;;;31.00;18.70;;;7.00;99.90;;;;;;5036740;28;20191;-57
2022/03/28 00:48:42;;;;;;;30.90;19.52;;;6.90;99.90;;;;;;5036637;28;20198;-57
2022/03/28 00:51:11;;;;;;;36.40;21.77;;;6.90;99.90;;;;;;5037065;28;20226;-57
2022/03/28 00:53:38;;;;;;;32.47;20.15;;;6.80;99.90;;;;;;5036362;28;20235;-57
2022/03/28 00:56:07;;;;;;;40.67;21.02;;;6.70;99.90;;;;;;5036344;28;20205;-57
2022/03/28 00:58:34;;;;;;;38.78;19.98;;;6.70;99.90;;;;;;5036650;28;20289;-55
2022/03/28 01:01:02;;;;;;;38.08;20.98;;;6.70;99.90;;;;;;5036361;28;20278;-57
2022/03/28 01:03:30;;;;;;;36.33;22.63;;;6.60;99.90;;;;;;5037354;28;20198;-57
2022/03/28 01:05:58;;;;;;;42.95;23.10;;;6.60;99.90;;;;;;5036555;28;20203;-57
2022/03/28 01:08:25;;;;;;;42.72;22.02;;;6.60;99.90;;;;;;5036398;28;20702;-57
2022/03/28 01:10:56;;;;;;;41.03;22.02;;;6.50;99.90;;;;;;5036689;28;20246;-57
2022/03/28 01:13:24;;;;;;;39.35;20.45;;;6.50;99.90;;;;;;5037738;28;20275;-57
2022/03/28 01:15:51;;;;;;;42.53;22.67;;;6.50;99.90;;;;;;5037790;28;20226;-57
2022/03/28 01:18:18;;;;;;;40.88;23.60;;;6.60;99.90;;;;;;5037448;28;20202;-57
2022/03/28 01:20:47;;;;;;;38.03;21.92;;;6.50;99.90;;;;;;5036441;28;20251;-56
2022/03/28 01:23:15;;;;;;;36.40;22.65;;;6.60;99.90;;;;;;5036507;28;20206;-55
2022/03/28 01:25:45;;;;;;;36.83;20.70;;;6.50;99.90;;;;;;5036512;28;20694;-57
2022/03/28 01:28:12;;;;;;;35.15;21.77;;;6.50;99.90;;;;;;5036679;28;20218;-57
2022/03/28 01:30:39;;;;;;;35.00;21.10;;;6.50;99.90;;;;;;5036843;28;20212;-57
2022/03/28 01:33:06;;;;;;;39.75;22.45;;;6.50;99.90;;;;;;5036537;28;20214;-58
2022/03/28 01:35:36;;;;;;;40.70;20.60;;;6.40;99.90;;;;;;5036335;28;20222;-56
2022/03/28 01:38:05;;;;;;;40.67;19.98;;;6.40;99.90;;;;;;5035204;28;20205;-58
2022/03/28 01:40:34;;;;;;;34.55;20.05;;;6.30;99.90;;;;;;5035447;28;20219;-57
2022/03/28 01:43:01;;;;;;;36.60;20.92;;;6.30;99.90;;;;;;5035473;28;20203;-58
2022/03/28 01:45:28;;;;;;;39.15;19.40;;;6.20;99.90;;;;;;5035775;28;20222;-56
2022/03/28 01:47:56;;;;;;;44.90;20.75;;;6.20;99.90;;;;;;5035395;28;20211;-57
2022/03/28 01:50:23;;;;;;;44.83;22.20;;;6.30;99.90;;;;;;5035275;28;20596;-57
2022/03/28 01:52:51;;;;;;;42.85;20.73;;;6.30;99.90;;;;;;5034942;28;20218;-57
2022/03/28 01:55:19;;;;;;;35.67;20.15;;;6.30;99.90;;;;;;5035232;28;20222;-57
2022/03/28 01:57:47;;;;;;;40.72;21.55;;;6.20;99.90;;;;;;5035584;28;20213;-57
2022/03/28 02:00:16;;;;;;;40.38;21.58;;;6.20;99.90;;;;;;5035160;28;20655;-57
2022/03/28 02:02:44;;;;;;;42.42;18.85;;;6.20;99.90;;;;;;5035199;28;20227;-57
2022/03/28 02:05:12;;;;;;;39.85;18.48;;;6.20;99.90;;;;;;5035043;28;20213;-57
2022/03/28 02:07:40;;;;;;;38.35;18.35;;;6.20;99.90;;;;;;5035024;28;20678;-57
2022/03/28 02:10:09;;;;;;;39.90;19.70;;;6.10;99.90;;;;;;5034867;28;20206;-56
2022/03/28 02:12:36;;;;;;;36.85;19.60;;;6.10;99.90;;;;;;5034739;28;20233;-57
2022/03/28 02:15:06;;;;;;;44.63;21.35;;;6.10;99.90;;;;;;5034637;28;20229;-57
2022/03/28 02:17:33;;;;;;;36.13;20.33;;;6.00;99.90;;;;;;5035046;28;20245;-57
2022/03/28 02:20:00;;;;;;;41.03;18.45;;;6.00;99.90;;;;;;5034905;28;20207;-56
2022/03/28 02:22:27;;;;;;;32.42;17.30;;;6.00;99.90;;;;;;5034605;28;20226;-57
2022/03/28 02:24:55;;;;;;;42.33;18.92;;;5.90;99.90;;;;;;5034853;28;20206;-57
2022/03/28 02:27:22;;;;;;;39.22;17.80;;;5.90;99.90;;;;;;5034799;28;20206;-57
2022/03/28 02:29:49;;;;;;;35.80;19.27;;;5.80;99.90;;;;;;5034430;28;20301;-57
2022/03/28 02:32:17;;;;;;;34.33;17.65;;;5.90;99.90;;;;;;5034313;28;20229;-57
2022/03/28 02:34:44;;;;;;;34.15;17.15;;;5.80;99.90;;;;;;5034598;28;20229;-56
2022/03/28 02:37:12;;;;;;;36.85;17.95;;;5.80;99.90;;;;;;5034556;28;20245;-57
2022/03/28 02:39:39;;;;;;;39.47;18.50;;;5.80;99.90;;;;;;5034711;28;20206;-57
2022/03/28 02:42:07;;;;;;;37.63;19.90;;;5.70;99.90;;;;;;5034460;28;20233;-57
2022/03/28 02:44:34;;;;;;;36.22;18.27;;;5.70;99.90;;;;;;5034210;28;20206;-57
2022/03/28 02:47:02;;;;;;;37.72;19.15;;;5.60;99.90;;;;;;5034078;28;20209;-57
2022/03/28 02:49:30;;;;;;;40.03;19.83;;;5.60;99.90;;;;;;5033357;28;20203;-57
2022/03/28 02:51:57;;;;;;;42.00;18.52;;;5.50;99.90;;;;;;5034320;28;20236;-57
2022/03/28 02:54:25;;;;;;;44.47;19.55;;;5.50;99.90;;;;;;5033872;28;20214;-57
2022/03/28 02:56:52;;;;;;;36.55;17.30;;;5.50;99.90;;;;;;5034249;28;20206;-57
2022/03/28 02:59:19;;;;;;;31.30;17.27;;;5.40;99.90;;;;;;5042731;28;20690;-56
2022/03/28 03:01:48;;;;;;;33.78;16.90;;;5.40;99.90;;;;;;5037300;28;20226;-57
2022/03/28 03:04:15;;;;;;;36.60;16.67;;;5.40;99.90;;;;;;5034822;28;20214;-57
2022/03/28 03:06:43;;;;;;;36.55;16.58;;;5.40;99.90;;;;;;5033730;28;20198;-57
2022/03/28 03:09:10;;;;;;;34.55;16.75;;;5.40;99.90;;;;;;5034250;28;20229;-57
2022/03/28 03:11:37;;;;;;;40.67;17.52;;;5.30;99.90;;;;;;5034886;28;20277;-57
2022/03/28 03:14:05;;;;;;;37.25;17.17;;;5.30;99.90;;;;;;5035192;28;20202;-57
2022/03/28 03:16:32;;;;;;;41.75;16.00;;;5.20;99.90;;;;;;5034661;28;20587;-57
2022/03/28 03:18:59;;;;;;;39.88;15.18;;;5.30;99.90;;;;;;5034227;28;20241;-57
2022/03/28 03:21:26;;;;;;;37.95;15.35;;;5.20;99.90;;;;;;5033950;28;20635;-56
2022/03/28 03:23:54;;;;;;;42.38;16.48;;;5.20;99.90;;;;;;5034204;28;20207;-56
2022/03/28 03:26:21;;;;;;;37.10;15.63;;;5.10;99.90;;;;;;5034503;28;20618;-57
2022/03/28 03:28:48;;;;;;;38.38;16.48;;;5.10;99.90;;;;;;5034275;28;20215;-56
2022/03/28 03:31:15;;;;;;;36.53;16.77;;;5.20;99.90;;;;;;5033791;28;20226;-56
2022/03/28 03:33:42;;;;;;;42.83;17.60;;;5.10;99.90;;;;;;5033643;28;20234;-57
2022/03/28 03:36:09;;;;;;;32.67;15.68;;;5.10;99.90;;;;;;5033669;28;20229;-56
2022/03/28 03:38:36;;;;;;;31.45;16.02;;;5.10;99.90;;;;;;5033365;28;20221;-57
2022/03/28 03:41:05;;;;;;;33.88;16.00;;;5.10;99.90;;;;;;5033443;28;20221;-56
2022/03/28 03:43:32;;;;;;;38.72;16.52;;;5.00;99.90;;;;;;5033534;28;20211;-57
2022/03/28 03:45:59;;;;;;;36.08;16.65;;;5.00;99.90;;;;;;5033548;28;20217;-56
2022/03/28 03:48:29;;;;;;;42.47;16.20;;;5.00;99.90;;;;;;5032966;28;20694;-56
2022/03/28 03:50:57;;;;;;;37.55;15.13;;;5.00;99.90;;;;;;5033035;28;20222;-56
2022/03/28 03:53:24;;;;;;;36.03;18.20;;;5.00;99.90;;;;;;5033388;28;20229;-56
2022/03/28 03:55:51;;;;;;;37.03;17.02;;;5.00;99.90;;;;;;5033214;28;20214;-56
2022/03/28 03:58:20;;;;;;;30.70;15.15;;;4.90;99.90;;;;;;5033276;28;20580;-57
2022/03/28 04:00:47;;;;;;;31.65;15.80;;;4.90;99.90;;;;;;5032297;28;20206;-56
2022/03/28 04:03:14;;;;;;;39.60;15.73;;;4.80;99.90;;;;;;5032915;28;20207;-56
2022/03/28 04:05:41;;;;;;;38.65;14.98;;;4.80;99.90;;;;;;5033151;28;20206;-57
2022/03/28 04:09:33;;;;;;;37.35;16.25;;;4.80;99.90;;;;;;5093523;27;20549;-58
2022/03/28 04:12:00;;;;;;;38.33;16.63;;;4.70;99.90;;;;;;5092192;28;20221;-57
2022/03/28 04:14:27;;;;;;;45.67;17.98;;;4.70;99.90;;;;;;5092398;28;20210;-58
2022/03/28 04:16:55;;;;;;;35.90;15.82;;;4.60;99.90;;;;;;5094151;28;20220;-57
2022/03/28 04:19:22;;;;;;;50.08;20.00;;;4.50;99.90;;;;;;5093712;28;20212;-57
2022/03/28 04:21:49;;;;;;;51.10;19.25;;;4.50;99.90;;;;;;5091452;28;20324;-58
2022/03/28 04:24:16;;;;;;;45.72;18.25;;;4.50;99.90;;;;;;5091128;28;20678;-57
2022/03/28 04:26:45;;;;;;;51.05;19.42;;;4.40;99.90;;;;;;5090714;28;20204;-58
2022/03/28 04:29:13;;;;;;;37.38;19.20;;;4.40;99.90;;;;;;5091138;28;20224;-57
2022/03/28 04:31:40;;;;;;;44.80;19.38;;;4.40;99.90;;;;;;5091526;28;20224;-56
2022/03/28 04:34:08;;;;;;;43.95;17.88;;;4.40;99.90;;;;;;5091147;28;20243;-56
2022/03/28 04:36:35;;;;;;;30.30;14.35;;;4.40;99.90;;;;;;5091037;28;20572;-57
2022/03/28 04:39:02;;;;;;;47.50;17.17;;;4.40;99.90;;;;;;5091415;28;20681;-57
2022/03/28 04:41:29;;;;;;;39.95;15.05;;;4.40;99.90;;;;;;5091649;28;20248;-57
2022/03/28 04:43:58;;;;;;;35.28;15.73;;;4.40;99.90;;;;;;5091451;28;20201;-57
2022/03/28 04:46:25;;;;;;;46.47;16.58;;;4.30;99.90;;;;;;5091613;28;20204;-57
2022/03/28 04:48:52;;;;;;;40.38;16.27;;;4.20;99.90;;;;;;5092302;28;20217;-57
2022/03/28 04:51:19;;;;;;;59.17;16.08;;;4.20;99.90;;;;;;5091026;28;20232;-56
2022/03/28 04:53:46;;;;;;;29.90;11.82;;;4.20;99.90;;;;;;5091579;28;20205;-57
2022/03/28 04:56:13;;;;;;;18.88;12.27;;;4.10;99.90;;;;;;5091047;28;20253;-57
2022/03/28 04:58:40;;;;;;;96.50;17.50;;;4.10;99.90;;;;;;5091211;28;20197;-57
2022/03/28 05:01:09;;;;;;;39.22;12.85;;;4.00;99.90;;;;;;5091927;28;20247;-57
2022/03/28 05:03:37;;;;;;;111.75;18.20;;;3.90;99.90;;;;;;5093824;28;20227;-55
2022/03/28 05:06:04;;;;;;;56.38;16.00;;;3.90;99.90;;;;;;5094888;28;20204;-55
2022/03/28 05:08:31;;;;;;;36.78;12.95;;;3.80;99.90;;;;;;5093421;28;20224;-55
2022/03/28 05:10:59;;;;;;;34.17;13.57;;;3.70;99.90;;;;;;5093982;28;20639;-56
2022/03/28 05:13:27;;;;;;;39.75;12.90;;;3.60;99.90;;;;;;5094276;28;20651;-56
2022/03/28 05:15:54;;;;;;;24.27;12.70;;;3.60;99.90;;;;;;5094027;28;20222;-56
2022/03/28 05:18:22;;;;;;;63.42;13.75;;;3.50;99.90;;;;;;5095428;28;20206;-56
2022/03/28 05:20:50;;;;;;;35.30;12.30;;;3.50;99.90;;;;;;5082321;28;20570;-56
2022/03/28 05:23:17;;;;;;;53.50;14.20;;;3.40;99.90;;;;;;5082236;28;20235;-56
2022/03/28 05:25:44;;;;;;;27.95;12.35;;;3.40;99.90;;;;;;5082845;28;20656;-56
2022/03/28 05:28:11;;;;;;;22.95;12.52;;;3.40;99.90;;;;;;5082799;28;20213;-56
2022/03/28 05:30:39;;;;;;;21.33;12.13;;;3.40;99.90;;;;;;5082756;28;20231;-56
2022/03/28 05:33:07;;;;;;;18.73;12.23;;;3.50;99.90;;;;;;5086332;28;20588;-56
2022/03/28 05:35:38;;;;;;;48.67;12.88;;;3.50;99.90;;;;;;5092361;28;20270;-56
2022/03/28 05:38:05;;;;;;;30.67;12.52;;;3.50;99.90;;;;;;5084504;28;20182;-56
2022/03/28 05:40:33;;;;;;;34.53;13.10;;;3.40;99.90;;;;;;5080257;28;20231;-56
2022/03/28 05:43:00;;;;;;;19.88;11.13;;;3.40;99.90;;;;;;5085091;28;20308;-55
2022/03/28 05:45:27;;;;;;;26.75;11.98;;;3.40;99.90;;;;;;5087995;28;20208;-56
2022/03/28 05:47:55;;;;;;;19.90;11.60;;;3.30;99.90;;;;;;5090519;28;20595;-56
2022/03/28 05:50:22;;;;;;;20.98;10.52;;;3.30;99.90;;;;;;5085812;28;20680;-55
2022/03/28 05:52:51;;;;;;;22.70;10.60;;;3.40;99.90;;;;;;5075825;28;20221;-57
2022/03/28 05:55:18;;;;;;;23.65;11.45;;;3.40;99.90;;;;;;5075662;28;20209;-57
2022/03/28 05:57:45;;;;;;;15.85;9.98;;;3.40;99.90;;;;;;5075732;28;20630;-56
2022/03/28 06:00:14;;;;;;;21.85;10.93;;;3.40;99.90;;;;;;5075516;28;20225;-57
2022/03/28 06:02:42;;;;;;;70.50;13.38;;;3.50;99.90;;;;;;5075332;28;20319;-55
2022/03/28 06:05:10;;;;;;;91.07;15.02;;;3.50;99.90;;;;;;5075227;28;20212;-56
2022/03/28 06:07:37;;;;;;;16.80;9.93;;;3.50;99.90;;;;;;5095999;22;20353;-53
2022/03/28 06:10:06;;;;;;;34.95;11.00;;;3.40;99.90;;;;;;5035205;28;20199;-53
2022/03/28 06:12:33;;;;;;;25.42;10.90;;;3.40;99.90;;;;;;5036073;28;20599;-53
2022/03/28 06:15:01;;;;;;;39.30;12.75;;;3.40;99.90;;;;;;5035073;28;20213;-53
2022/03/28 06:17:28;;;;;;;30.33;11.38;;;3.50;99.90;;;;;;5033169;28;20223;-56
2022/03/28 06:19:55;;;;;;;21.45;9.40;;;3.60;99.90;;;;;;5033914;28;20225;-53
2022/03/28 06:22:22;;;;;;;21.30;11.10;;;3.60;99.90;;;;;;5035405;28;20202;-53
2022/03/28 06:24:49;;;;;;;14.48;9.77;;;3.60;99.90;;;;;;5034644;28;20571;-52
2022/03/28 06:27:23;;;;;;;17.92;10.85;;;3.60;99.90;;;;;;5034235;28;20714;-54
2022/03/28 06:29:50;;;;;;;12.63;9.90;;;3.60;99.90;;;;;;5033837;28;20268;-53
2022/03/28 06:32:18;;;;;;;13.23;9.10;;;3.70;99.90;;;;;;5033868;28;20578;-53
2022/03/28 06:34:45;;;;;;;11.60;9.05;;;3.80;99.90;;;;;;5034149;28;20203;-55
2022/03/28 06:37:12;;;;;;;18.02;9.57;;;3.90;99.90;;;;;;5033794;28;20223;-53
2022/03/28 06:39:39;;;;;;;13.70;8.82;;;3.90;99.90;;;;;;5034501;28;20205;-54
2022/03/28 06:42:07;;;;;;;12.15;9.05;;;3.90;99.90;;;;;;5034006;28;20702;-53
2022/03/28 06:44:36;;;;;;;14.07;9.30;;;4.00;99.90;;;;;;5034356;28;20620;-54
2022/03/28 06:47:03;;;;;;;12.57;9.57;;;4.00;99.90;;;;;;5032536;28;20206;-55
2022/03/28 06:49:32;;;;;;;13.57;9.68;;;4.10;99.90;;;;;;5015027;28;20231;-52
2022/03/28 06:51:59;;;;;;;12.85;8.60;;;4.10;99.90;;;;;;5014485;28;20204;-53
2022/03/28 06:54:26;;;;;;;12.10;9.23;;;4.10;99.90;;;;;;5014098;28;20237;-52
2022/03/28 06:56:53;;;;;;;11.27;8.02;;;4.20;99.90;;;;;;5027976;28;20208;-53
2022/03/28 06:59:23;;;;;;;13.02;9.07;;;4.30;99.90;;;;;;5033563;28;20203;-52
2022/03/28 07:01:51;;;;;;;10.13;8.45;;;4.40;99.90;;;;;;5033226;28;20198;-53
2022/03/28 07:04:20;;;;;;;12.48;9.48;;;4.40;99.90;;;;;;5033483;28;20207;-52
2022/03/28 07:06:47;;;;;;;13.85;9.40;;;4.40;99.90;;;;;;5034180;28;20276;-53
2022/03/28 07:09:15;;;;;;;13.05;9.63;;;4.50;99.90;;;;;;5032768;28;20664;-51
2022/03/28 07:11:42;;;;;;;10.38;9.10;;;4.50;99.90;;;;;;5032228;28;20214;-52
2022/03/28 07:14:09;;;;;;;11.82;8.88;;;4.60;99.90;;;;;;5033957;28;20199;-52
2022/03/28 07:16:36;;;;;;;12.75;10.63;;;4.70;99.90;;;;;;5032686;28;20203;-54
2022/03/28 07:19:05;;;;;;;12.40;9.90;;;4.80;99.90;;;;;;5033567;28;20227;-52
2022/03/28 07:21:32;;;;;;;10.23;8.52;;;4.90;99.90;;;;;;5033376;28;20261;-53
2022/03/28 07:23:59;;;;;;;10.27;9.00;;;5.00;99.90;;;;;;5033467;28;20212;-52
2022/03/28 07:26:26;;;;;;;12.10;9.93;;;5.00;99.90;;;;;;5033477;28;20204;-52
2022/03/28 07:28:58;;;;;;;16.65;10.20;;;4.90;99.90;;;;;;5033297;28;20239;-52
2022/03/28 07:31:25;;;;;;;16.35;12.20;;;5.00;99.90;;;;;;5032709;28;20199;-54
2022/03/28 07:34:29;;;;;;;26.67;18.35;;;5.00;99.90;;;;;;5033254;28;20209;-52
2022/03/28 07:36:40;;;;;;;30.85;18.90;;;4.90;99.90;;;;;;5032823;28;20218;-54
2022/03/28 07:39:07;;;;;;;32.35;20.45;;;4.90;99.90;;;;;;5032070;28;20227;-53
2022/03/28 07:41:34;;;;;;;36.65;23.08;;;4.90;99.90;;;;;;5033087;28;20218;-53
2022/03/28 07:44:02;;;;;;;39.25;23.90;;;4.90;99.90;;;;;;5031564;28;20445;-52
2022/03/28 07:46:29;;;;;;;38.80;21.48;;;5.10;99.90;;;;;;5032912;28;20389;-51
2022/03/28 07:48:56;;;;;;;31.70;19.50;;;5.20;99.90;;;;;;5032591;28;20226;-55
2022/03/28 07:51:24;;;;;;;32.83;20.67;;;5.40;99.90;;;;;;5032935;28;20209;-56
2022/03/28 07:53:54;;;;;;;39.22;22.60;;;5.60;99.90;;;;;;5032085;28;20214;-52
2022/03/28 07:56:21;;;;;;;34.03;21.10;;;5.60;99.90;;;;;;5032843;28;20200;-52
2022/03/28 07:58:48;;;;;;;34.08;21.02;;;5.60;99.90;;;;;;5032624;28;20227;-52
2022/03/28 08:01:15;;;;;;;34.60;20.30;;;5.60;99.90;;;;;;5032083;28;20209;-52
2022/03/28 08:03:42;;;;;;;30.88;19.10;;;5.70;99.90;;;;;;5031765;28;20208;-50
2022/03/28 08:06:09;;;;;;;32.95;19.17;;;5.70;99.90;;;;;;5032948;28;20203;-54
2022/03/28 08:08:37;;;;;;;30.77;18.02;;;5.80;99.90;;;;;;5033016;28;20271;-53
2022/03/28 08:11:07;;;;;;;38.28;21.80;;;5.80;99.90;;;;;;5032815;28;20686;-53
2022/03/28 08:13:34;;;;;;;34.55;20.02;;;5.90;99.90;;;;;;5033475;28;20185;-53
2022/03/28 08:16:02;;;;;;;35.88;20.73;;;6.00;99.90;;;;;;5033871;28;20208;-54
2022/03/28 08:18:29;;;;;;;35.97;20.85;;;6.00;99.90;;;;;;5033084;28;20247;-53
2022/03/28 08:20:57;;;;;;;38.90;21.23;;;6.00;99.90;;;;;;5033981;28;20685;-54
2022/03/28 08:23:24;;;;;;;31.23;20.02;;;6.10;99.90;;;;;;5033830;28;20211;-58
2022/03/28 08:25:52;;;;;;;31.30;20.10;;;6.30;99.90;;;;;;5033527;28;20213;-54
2022/03/28 08:28:20;;;;;;;35.05;20.33;;;6.50;99.90;;;;;;5034365;28;20234;-53
2022/03/28 08:30:47;;;;;;;35.95;19.80;;;6.60;99.90;;;;;;5034410;28;20225;-54
2022/03/28 08:33:14;;;;;;;37.50;22.10;;;6.70;99.90;;;;;;5033331;28;20520;-56
2022/03/28 08:35:42;;;;;;;38.22;21.20;;;6.70;99.90;;;;;;5034597;28;20450;-56
2022/03/28 08:38:09;;;;;;;40.70;20.80;;;6.70;99.90;;;;;;5032843;28;20618;-56
2022/03/28 08:40:36;;;;;;;33.05;18.75;;;6.70;99.90;;;;;;5032952;28;20575;-55
2022/03/28 08:43:04;;;;;;;30.15;18.00;;;6.80;99.90;;;;;;5032603;28;20208;-57
2022/03/28 08:45:33;;;;;;;30.02;18.17;;;6.80;99.90;;;;;;5031551;28;20215;-56
2022/03/28 08:48:01;;;;;;;34.17;18.52;;;6.90;99.90;;;;;;5032821;28;20232;-55
2022/03/28 08:50:28;;;;;;;30.13;17.73;;;7.00;99.90;;;;;;5032504;28;20227;-55
2022/03/28 08:52:55;;;;;;;37.13;20.90;;;7.20;99.90;;;;;;5031412;28;20666;-55
2022/03/28 08:55:23;;;;;;;36.50;21.20;;;7.30;99.90;;;;;;5034445;28;20672;-56
2022/03/28 08:57:50;;;;;;;33.25;22.15;;;7.40;99.90;;;;;;5036144;28;20235;-56
2022/03/28 09:00:17;;;;;;;32.10;20.55;;;7.40;99.90;;;;;;5036085;28;20576;-55
2022/03/28 09:02:49;;;;;;;34.08;20.63;;;7.40;99.90;;;;;;5035388;28;20202;-55
2022/03/28 09:05:17;;;;;;;36.10;21.50;;;7.50;99.90;;;;;;5036549;28;20188;-57
2022/03/28 09:07:46;;;;;;;31.92;19.98;;;7.80;99.90;;;;;;5034949;28;20725;-55
2022/03/28 09:10:15;;;;;;;33.63;20.23;;;8.00;99.90;;;;;;5035775;28;20576;-55
2022/03/28 09:12:58;;;;;;;33.20;20.17;;;8.20;99.90;;;;;;5035674;28;20203;-56
2022/03/28 09:15:25;;;;;;;35.63;20.40;;;8.30;99.90;;;;;;5035257;28;20205;-57
2022/03/28 09:17:58;;;;;;;41.13;25.30;;;8.40;99.90;;;;;;5033850;28;20449;-55
2022/03/28 09:20:26;;;;;;;37.78;22.30;;;8.30;99.90;;;;;;5035602;28;20210;-55
2022/03/28 09:22:53;;;;;;;42.65;24.80;;;8.20;99.90;;;;;;5035534;28;20199;-57
2022/03/28 09:25:20;;;;;;;35.60;21.35;;;8.10;99.90;;;;;;5035843;28;20232;-56
2022/03/28 09:27:49;;;;;;;34.72;21.60;;;8.10;99.90;;;;;;5034931;28;20242;-55
2022/03/28 09:30:18;;;;;;;34.38;21.23;;;8.30;99.90;;;;;;5034606;28;20219;-56
2022/03/28 09:32:47;;;;;;;26.90;17.65;;;8.40;99.90;;;;;;5035603;28;20209;-57
2022/03/28 09:35:21;;;;;;;27.67;18.23;;;8.60;99.90;;;;;;5036114;28;20205;-55
2022/03/28 09:37:55;;;;;;;32.22;19.63;;;8.70;99.90;;;;;;5034597;28;20295;-57
2022/03/28 09:40:25;;;;;;;33.85;20.13;;;8.90;99.90;;;;;;5035552;28;20538;-56
2022/03/28 09:42:52;;;;;;;36.50;22.10;;;9.00;99.90;;;;;;5035133;28;20713;-57
2022/03/28 09:45:20;;;;;;;35.33;23.67;;;9.20;99.90;;;;;;5034656;28;20458;-57
2022/03/28 09:47:59;;;;;;;38.40;23.80;;;9.20;98.80;;;;;;5035339;28;20470;-56
2022/03/28 09:50:33;;;;;;;40.77;25.80;;;9.10;98.80;;;;;;5035551;28;20480;-57
2022/03/28 09:53:11;;;;;;;38.60;24.10;;;9.00;99.40;;;;;;5034198;28;20938;-57
2022/03/28 09:55:56;;;;;;;46.10;26.07;;;9.10;99.90;;;;;;5035645;28;20445;-58
2022/03/28 09:58:43;;;;;;;40.17;24.93;;;9.20;99.50;;;;;;5035347;28;20473;-57
2022/03/28 10:01:15;;;;;;;38.63;24.13;;;9.40;99.20;;;;;;5034311;28;20501;-57
2022/03/28 10:03:46;;;;;;;41.90;24.03;;;9.60;98.80;;;;;;5034069;28;20939;-56
2022/03/28 10:06:15;;;;;;;42.30;25.57;;;9.70;98.40;;;;;;5035371;28;20443;-57
2022/03/28 10:08:43;;;;;;;44.77;26.40;;;9.90;97.60;;;;;;5035523;28;20569;-56
2022/03/28 10:11:11;;;;;;;39.67;25.00;;;10.00;96.80;;;;;;5033836;28;20495;-55
2022/03/28 10:13:40;;;;;;;32.77;22.20;;;10.00;97.10;;;;;;5035333;28;21154;-57
2022/03/28 10:16:08;;;;;;;35.70;22.83;;;10.10;96.50;;;;;;5035157;28;20453;-57
2022/03/28 10:18:37;;;;;;;32.37;21.53;;;10.10;96.70;;;;;;5035820;28;20474;-57
2022/03/28 10:21:08;;;;;;;36.77;23.97;;;10.20;96.10;;;;;;5035180;28;20457;-56
2022/03/28 10:23:43;;;;;;;35.47;23.20;;;10.10;95.90;;;;;;5034648;28;20445;-57
2022/03/28 10:26:11;;;;;;;44.83;29.40;;;10.00;96.60;;;;;;5035480;28;20429;-57
2022/03/28 10:28:39;;;;;;;43.07;28.27;;;10.00;96.60;;;;;;5035329;28;20469;-56
2022/03/28 10:31:18;;;;;;;43.23;28.70;;;10.10;96.80;;;;;;5034944;28;20482;-56
2022/03/28 10:33:50;;;;;;;44.20;28.17;;;10.40;96.60;;;;;;5036263;28;20450;-55
2022/03/28 10:36:27;;;;;;;47.70;27.03;;;10.60;95.90;;;;;;5034464;28;20468;-57
2022/03/28 10:39:17;;;;;;;36.77;24.73;;;10.60;95.50;;;;;;5036278;28;20814;-56
2022/03/28 10:41:44;;;;;;;30.17;21.08;;;10.70;95.30;;;;;;5035905;28;20823;-56
2022/03/28 10:44:11;;;;;;;32.77;20.97;;;10.70;95.00;;;;;;5036386;28;20446;-57
2022/03/28 10:46:38;;;;;;;26.70;18.60;;;10.60;95.30;;;;;;5034658;28;20794;-56
2022/03/28 10:49:07;;;;;;;37.03;26.30;;;10.60;95.60;;;;;;5035459;28;20474;-56
2022/03/28 10:51:34;;;;;;;42.20;29.00;;;10.70;95.30;;;;;;5035778;28;20502;-57
2022/03/28 10:54:06;;;;;;;44.47;28.50;;;10.60;95.20;;;;;;5036102;28;20820;-57
2022/03/28 10:56:35;;;;;;;39.50;28.77;;;10.70;95.60;;;;;;5037530;28;20426;-57
2022/03/28 10:59:07;;;;;;;37.47;26.87;;;10.90;95.30;;;;;;5036935;28;20465;-57
2022/03/28 11:01:35;;;;;;;39.70;27.30;;;11.20;95.00;;;;;;5036420;28;20484;-56
2022/03/28 11:04:07;;;;;;;40.13;26.63;;;11.30;93.90;;;;;;5036242;28;20882;-57
2022/03/28 11:06:52;;;;;;;34.10;24.13;;;11.30;93.80;;;;;;5036716;28;20433;-56
2022/03/28 11:09:44;;;;;;;33.00;23.37;;;11.30;93.90;;;;;;5036274;28;20464;-56
2022/03/28 11:12:13;;;;;;;32.33;20.87;;;11.30;94.10;;;;;;5036612;28;20441;-55
2022/03/28 11:14:42;;;;;;;44.07;29.83;;;11.30;93.90;;;;;;5035851;28;20922;-56
2022/03/28 11:17:17;;;;;;;38.23;26.80;;;11.30;93.30;;;;;;5036092;28;20472;-56
2022/03/28 11:20:02;;;;;;;41.07;29.33;;;11.00;93.80;;;;;;5037461;28;20466;-56
2022/03/28 11:22:48;;;;;;;37.73;27.77;;;10.80;94.70;;;;;;5036240;28;20440;-56
2022/03/28 11:25:39;;;;;;;35.17;24.13;;;10.70;95.40;;;;;;5036159;28;20435;-56
2022/03/28 11:28:27;;;;;;;44.27;27.63;;;10.80;95.60;;;;;;5035280;28;20478;-57
2022/03/28 11:31:00;;;;;;;32.97;25.50;;;11.00;95.10;;;;;;5036084;28;20497;-55
2022/03/28 11:33:39;;;;;;;35.20;26.20;;;11.00;94.60;;;;;;5036509;28;20453;-57
2022/03/28 11:36:09;;;;;;;34.50;23.70;;;11.00;94.90;;;;;;5036509;28;20431;-54
2022/03/28 11:38:39;;;;;;;28.80;21.90;;;11.00;94.60;;;;;;5035723;28;20838;-55
2022/03/28 11:41:09;;;;;;;33.30;25.77;;;10.90;94.80;;;;;;5035803;28;20445;-56
2022/03/28 11:43:38;;;;;;;31.20;23.73;;;10.80;95.20;;;;;;5035879;28;20458;-55
2022/03/28 11:46:12;;;;;;;29.40;22.70;;;10.60;95.50;;;;;;5036397;28;20448;-54
2022/03/28 11:48:55;;;;;;;25.80;19.33;;;10.60;96.10;;;;;;5035807;28;20477;-53
2022/03/28 11:51:23;;;;;;;20.77;15.23;;;10.70;96.00;;;;;;5034751;28;20476;-54
2022/03/28 11:53:50;;;;;;;37.73;27.77;;;10.80;95.50;;;;;;5034648;28;20541;-53
2022/03/28 11:56:27;;;;;;;30.80;23.13;;;10.80;95.40;;;;;;5034097;28;20461;-54
2022/03/28 11:59:01;;;;;;;27.53;20.50;;;10.80;95.50;;;;;;5034181;28;20496;-54
2022/03/28 12:01:29;;;;;;;23.43;19.03;;;10.70;95.60;;;;;;5033242;28;20420;-55
2022/03/28 12:03:56;;;;;;;21.20;15.00;;;10.70;96.20;;;;;;5033664;28;20446;-55
2022/03/28 12:06:28;;;;;;;19.70;12.87;;;10.80;95.90;;;;;;5033636;28;20840;-55
2022/03/28 12:08:56;;;;;;;20.57;14.20;;;10.80;95.50;;;;;;5044562;22;20528;-59
2022/03/28 12:11:25;;;;;;;19.13;13.93;;;10.70;95.80;;;;;;5014123;28;20482;-59
2022/03/28 12:13:53;;;;;;;21.97;13.13;;;10.70;96.00;;;;;;5013682;28;20897;-57
2022/03/28 12:16:20;;;;;;;17.33;13.23;;;10.70;96.30;;;;;;5013901;28;20538;-57
2022/03/28 12:18:51;;;;;;;23.10;14.67;;;10.80;96.40;;;;;;5013639;28;20475;-59
2022/03/28 12:21:18;;;;;;;18.43;11.97;;;10.90;96.00;;;;;;5013551;28;20920;-58
2022/03/28 12:23:46;;;;;;;21.20;11.77;;;10.90;95.90;;;;;;5013288;28;20442;-58
2022/03/28 12:26:13;;;;;;;23.00;14.30;;;11.00;95.40;;;;;;5013569;28;20944;-58
2022/03/28 12:28:45;;;;;;;28.93;18.70;;;10.90;95.60;;;;;;5014242;28;20473;-58
2022/03/28 12:31:13;;;;;;;25.80;18.17;;;10.90;95.50;;;;;;5017605;28;20470;-59
2022/03/28 12:33:41;;;;;;;32.27;18.33;;;10.90;95.70;;;;;;5017935;28;20450;-58
2022/03/28 12:36:10;;;;;;;29.13;17.77;;;10.80;96.30;;;;;;5017707;28;20485;-58
2022/03/28 12:38:40;;;;;;;24.93;14.33;;;10.90;96.20;;;;;;5017745;28;20466;-59
2022/03/28 12:41:11;;;;;;;26.90;14.63;;;11.00;95.90;;;;;;5017258;28;20912;-58
2022/03/28 12:43:39;;;;;;;24.73;15.20;;;11.00;96.20;;;;;;5017792;28;20436;-58
2022/03/28 12:46:10;;;;;;;26.63;15.73;;;11.00;96.20;;;;;;5017815;28;20498;-58